Аэропорт: Сокол. Магадан

ICAO: UHMM

METAR:
2019-09-16 01:00:00
UHMM 160100Z 08003MPS 9999 BKN029CB 10/05 Q1009 R10/290255 NOSIG RMK MT OBSC QFE742
METAR:
2019-09-15 22:55:00
TAF UHMM 152255Z 1600/1706 08003G10MPS 9999 -SHRA FEW011 OVC025CB TEMPO 1600/1610 5000 -SHRA BR FEW007 OVC013CB TEMPO 1612/1623 0500 FG VV003